sensor_id;sensor_type;location;lat;lon;timestamp;P1;durP1;ratioP1;P2;durP2;ratioP2
66429;SDS011;53242;51.694;10.006;2023-06-22T00:00:23;16.60;;;9.77;;
66429;SDS011;53242;51.694;10.006;2023-06-22T00:02:45;17.25;;;10.40;;
66429;SDS011;53242;51.694;10.006;2023-06-22T00:05:08;17.27;;;10.23;;
66429;SDS011;53242;51.694;10.006;2023-06-22T00:07:30;19.45;;;11.35;;
66429;SDS011;53242;51.694;10.006;2023-06-22T00:09:53;20.13;;;12.13;;
66429;SDS011;53242;51.694;10.006;2023-06-22T00:12:15;19.65;;;10.77;;
66429;SDS011;53242;51.694;10.006;2023-06-22T00:14:37;19.00;;;11.32;;
66429;SDS011;53242;51.694;10.006;2023-06-22T00:17:00;18.17;;;9.75;;
66429;SDS011;53242;51.694;10.006;2023-06-22T00:19:23;19.65;;;10.90;;
66429;SDS011;53242;51.694;10.006;2023-06-22T00:21:45;18.15;;;11.00;;
66429;SDS011;53242;51.694;10.006;2023-06-22T00:24:09;20.25;;;11.70;;
66429;SDS011;53242;51.694;10.006;2023-06-22T00:26:31;19.20;;;11.50;;
66429;SDS011;53242;51.694;10.006;2023-06-22T00:28:53;20.25;;;12.10;;
66429;SDS011;53242;51.694;10.006;2023-06-22T00:31:16;19.50;;;11.73;;
66429;SDS011;53242;51.694;10.006;2023-06-22T00:33:38;18.90;;;11.90;;
66429;SDS011;53242;51.694;10.006;2023-06-22T00:36:01;17.70;;;10.55;;
66429;SDS011;53242;51.694;10.006;2023-06-22T00:38:26;21.20;;;11.20;;
66429;SDS011;53242;51.694;10.006;2023-06-22T00:40:48;18.45;;;10.55;;
66429;SDS011;53242;51.694;10.006;2023-06-22T00:43:11;17.48;;;10.32;;
66429;SDS011;53242;51.694;10.006;2023-06-22T00:45:33;18.15;;;10.20;;
66429;SDS011;53242;51.694;10.006;2023-06-22T00:47:56;18.33;;;10.55;;
66429;SDS011;53242;51.694;10.006;2023-06-22T00:50:21;17.83;;;10.65;;
66429;SDS011;53242;51.694;10.006;2023-06-22T00:55:08;17.75;;;10.43;;
66429;SDS011;53242;51.694;10.006;2023-06-22T00:57:31;17.63;;;10.98;;
66429;SDS011;53242;51.694;10.006;2023-06-22T00:59:54;18.48;;;10.73;;
66429;SDS011;53242;51.694;10.006;2023-06-22T01:02:16;20.45;;;12.00;;
66429;SDS011;53242;51.694;10.006;2023-06-22T01:04:39;19.25;;;11.48;;
66429;SDS011;53242;51.694;10.006;2023-06-22T01:07:07;20.85;;;11.98;;
66429;SDS011;53242;51.694;10.006;2023-06-22T01:09:54;22.30;;;11.57;;
66429;SDS011;53242;51.694;10.006;2023-06-22T01:12:18;18.13;;;11.45;;
66429;SDS011;53242;51.694;10.006;2023-06-22T01:14:42;19.77;;;12.07;;
66429;SDS011;53242;51.694;10.006;2023-06-22T01:17:09;20.95;;;12.25;;
66429;SDS011;53242;51.694;10.006;2023-06-22T01:22:19;20.45;;;11.80;;
66429;SDS011;53242;51.694;10.006;2023-06-22T01:27:36;19.63;;;11.23;;
66429;SDS011;53242;51.694;10.006;2023-06-22T01:30:09;25.27;;;11.88;;
66429;SDS011;53242;51.694;10.006;2023-06-22T01:32:33;20.90;;;11.63;;
66429;SDS011;53242;51.694;10.006;2023-06-22T01:34:57;20.23;;;11.20;;
66429;SDS011;53242;51.694;10.006;2023-06-22T01:37:22;19.92;;;11.40;;
66429;SDS011;53242;51.694;10.006;2023-06-22T01:39:47;20.45;;;11.73;;
66429;SDS011;53242;51.694;10.006;2023-06-22T01:44:36;19.15;;;11.32;;
66429;SDS011;53242;51.694;10.006;2023-06-22T01:46:59;19.50;;;11.68;;
66429;SDS011;53242;51.694;10.006;2023-06-22T01:49:22;18.40;;;11.07;;
66429;SDS011;53242;51.694;10.006;2023-06-22T01:51:44;18.75;;;10.82;;
66429;SDS011;53242;51.694;10.006;2023-06-22T01:54:07;21.10;;;11.30;;
66429;SDS011;53242;51.694;10.006;2023-06-22T01:56:30;17.63;;;10.05;;
66429;SDS011;53242;51.694;10.006;2023-06-22T01:58:57;22.10;;;11.75;;
66429;SDS011;53242;51.694;10.006;2023-06-22T02:01:28;19.02;;;11.13;;
66429;SDS011;53242;51.694;10.006;2023-06-22T02:04:06;19.15;;;11.30;;
66429;SDS011;53242;51.694;10.006;2023-06-22T02:06:36;20.15;;;11.68;;
66429;SDS011;53242;51.694;10.006;2023-06-22T02:09:01;24.73;;;12.45;;
66429;SDS011;53242;51.694;10.006;2023-06-22T02:11:25;24.70;;;12.23;;
66429;SDS011;53242;51.694;10.006;2023-06-22T02:13:50;20.95;;;12.27;;
66429;SDS011;53242;51.694;10.006;2023-06-22T02:16:14;23.75;;;11.52;;
66429;SDS011;53242;51.694;10.006;2023-06-22T02:18:37;22.63;;;12.15;;
66429;SDS011;53242;51.694;10.006;2023-06-22T02:21:03;25.88;;;12.55;;
66429;SDS011;53242;51.694;10.006;2023-06-22T02:23:25;28.48;;;13.68;;
66429;SDS011;53242;51.694;10.006;2023-06-22T02:25:47;24.83;;;13.45;;
66429;SDS011;53242;51.694;10.006;2023-06-22T02:28:10;30.50;;;14.45;;
66429;SDS011;53242;51.694;10.006;2023-06-22T02:30:33;22.38;;;13.00;;
66429;SDS011;53242;51.694;10.006;2023-06-22T02:32:56;24.90;;;13.38;;
66429;SDS011;53242;51.694;10.006;2023-06-22T02:35:21;23.65;;;12.63;;
66429;SDS011;53242;51.694;10.006;2023-06-22T02:37:44;21.20;;;11.98;;
66429;SDS011;53242;51.694;10.006;2023-06-22T02:40:06;26.13;;;11.82;;
66429;SDS011;53242;51.694;10.006;2023-06-22T02:42:30;23.33;;;11.68;;
66429;SDS011;53242;51.694;10.006;2023-06-22T02:44:53;26.20;;;12.63;;
66429;SDS011;53242;51.694;10.006;2023-06-22T02:47:16;21.58;;;12.27;;
66429;SDS011;53242;51.694;10.006;2023-06-22T02:49:38;24.30;;;13.32;;
66429;SDS011;53242;51.694;10.006;2023-06-22T02:52:01;23.38;;;12.73;;
66429;SDS011;53242;51.694;10.006;2023-06-22T02:54:23;25.45;;;13.20;;
66429;SDS011;53242;51.694;10.006;2023-06-22T02:56:48;25.13;;;13.77;;
66429;SDS011;53242;51.694;10.006;2023-06-22T02:59:13;24.08;;;13.18;;
66429;SDS011;53242;51.694;10.006;2023-06-22T03:01:35;24.05;;;13.32;;
66429;SDS011;53242;51.694;10.006;2023-06-22T03:04:13;25.10;;;12.70;;
66429;SDS011;53242;51.694;10.006;2023-06-22T03:06:36;23.98;;;13.43;;
66429;SDS011;53242;51.694;10.006;2023-06-22T03:09:02;23.10;;;13.07;;
66429;SDS011;53242;51.694;10.006;2023-06-22T03:11:27;23.80;;;13.63;;
66429;SDS011;53242;51.694;10.006;2023-06-22T03:13:49;26.00;;;13.63;;
66429;SDS011;53242;51.694;10.006;2023-06-22T03:16:14;25.08;;;13.98;;
66429;SDS011;53242;51.694;10.006;2023-06-22T03:18:36;25.13;;;13.40;;
66429;SDS011;53242;51.694;10.006;2023-06-22T03:20:58;27.10;;;14.40;;
66429;SDS011;53242;51.694;10.006;2023-06-22T03:23:22;26.05;;;14.07;;
66429;SDS011;53242;51.694;10.006;2023-06-22T03:25:44;26.63;;;14.15;;
66429;SDS011;53242;51.694;10.006;2023-06-22T03:28:07;28.23;;;14.05;;
66429;SDS011;53242;51.694;10.006;2023-06-22T03:30:29;20.92;;;11.73;;
66429;SDS011;53242;51.694;10.006;2023-06-22T03:32:52;24.50;;;11.93;;
66429;SDS011;53242;51.694;10.006;2023-06-22T03:35:14;22.00;;;10.50;;
66429;SDS011;53242;51.694;10.006;2023-06-22T03:37:36;22.08;;;12.30;;
66429;SDS011;53242;51.694;10.006;2023-06-22T03:39:59;24.23;;;12.65;;
66429;SDS011;53242;51.694;10.006;2023-06-22T03:42:21;20.63;;;12.43;;
66429;SDS011;53242;51.694;10.006;2023-06-22T03:44:44;27.30;;;13.25;;
66429;SDS011;53242;51.694;10.006;2023-06-22T03:47:06;24.20;;;13.40;;
66429;SDS011;53242;51.694;10.006;2023-06-22T03:49:29;25.42;;;13.63;;
66429;SDS011;53242;51.694;10.006;2023-06-22T03:51:51;26.75;;;13.57;;
66429;SDS011;53242;51.694;10.006;2023-06-22T03:54:14;24.27;;;13.35;;
66429;SDS011;53242;51.694;10.006;2023-06-22T03:56:36;23.92;;;12.27;;
66429;SDS011;53242;51.694;10.006;2023-06-22T03:58:59;22.75;;;13.38;;
66429;SDS011;53242;51.694;10.006;2023-06-22T04:01:21;23.90;;;12.90;;
66429;SDS011;53242;51.694;10.006;2023-06-22T04:03:43;26.52;;;13.20;;
66429;SDS011;53242;51.694;10.006;2023-06-22T04:06:06;23.75;;;13.38;;
66429;SDS011;53242;51.694;10.006;2023-06-22T04:08:29;24.45;;;13.38;;
66429;SDS011;53242;51.694;10.006;2023-06-22T04:10:51;23.65;;;12.48;;
66429;SDS011;53242;51.694;10.006;2023-06-22T04:13:14;25.38;;;12.85;;
66429;SDS011;53242;51.694;10.006;2023-06-22T04:15:36;28.75;;;14.30;;
66429;SDS011;53242;51.694;10.006;2023-06-22T04:17:59;22.27;;;12.77;;
66429;SDS011;53242;51.694;10.006;2023-06-22T04:20:21;22.55;;;12.32;;
66429;SDS011;53242;51.694;10.006;2023-06-22T04:22:44;23.40;;;12.32;;
66429;SDS011;53242;51.694;10.006;2023-06-22T04:25:07;22.40;;;11.35;;
66429;SDS011;53242;51.694;10.006;2023-06-22T04:27:29;23.23;;;11.32;;
66429;SDS011;53242;51.694;10.006;2023-06-22T04:29:52;19.38;;;11.52;;
66429;SDS011;53242;51.694;10.006;2023-06-22T04:32:15;22.13;;;11.15;;
66429;SDS011;53242;51.694;10.006;2023-06-22T04:34:37;23.20;;;12.43;;
66429;SDS011;53242;51.694;10.006;2023-06-22T04:37:00;22.42;;;12.68;;
66429;SDS011;53242;51.694;10.006;2023-06-22T04:39:22;23.23;;;13.05;;
66429;SDS011;53242;51.694;10.006;2023-06-22T04:41:45;27.58;;;13.55;;
66429;SDS011;53242;51.694;10.006;2023-06-22T04:44:12;26.00;;;13.05;;
66429;SDS011;53242;51.694;10.006;2023-06-22T04:46:34;19.20;;;11.70;;
66429;SDS011;53242;51.694;10.006;2023-06-22T04:49:00;18.52;;;10.10;;
66429;SDS011;53242;51.694;10.006;2023-06-22T04:51:22;17.65;;;9.50;;
66429;SDS011;53242;51.694;10.006;2023-06-22T04:53:45;16.70;;;9.82;;
66429;SDS011;53242;51.694;10.006;2023-06-22T04:56:07;21.20;;;10.18;;
66429;SDS011;53242;51.694;10.006;2023-06-22T04:58:30;16.10;;;9.38;;
66429;SDS011;53242;51.694;10.006;2023-06-22T05:03:18;18.42;;;10.15;;
66429;SDS011;53242;51.694;10.006;2023-06-22T05:05:41;16.95;;;9.88;;
66429;SDS011;53242;51.694;10.006;2023-06-22T05:08:03;17.48;;;10.02;;
66429;SDS011;53242;51.694;10.006;2023-06-22T05:10:28;17.27;;;10.40;;
66429;SDS011;53242;51.694;10.006;2023-06-22T05:12:51;17.83;;;9.63;;
66429;SDS011;53242;51.694;10.006;2023-06-22T05:15:13;18.52;;;10.48;;
66429;SDS011;53242;51.694;10.006;2023-06-22T05:17:37;20.67;;;10.48;;
66429;SDS011;53242;51.694;10.006;2023-06-22T05:20:05;19.85;;;9.85;;
66429;SDS011;53242;51.694;10.006;2023-06-22T05:22:28;19.17;;;10.65;;
66429;SDS011;53242;51.694;10.006;2023-06-22T05:24:50;19.13;;;9.68;;
66429;SDS011;53242;51.694;10.006;2023-06-22T05:27:13;22.25;;;11.35;;
66429;SDS011;53242;51.694;10.006;2023-06-22T05:29:36;21.00;;;10.93;;
66429;SDS011;53242;51.694;10.006;2023-06-22T05:31:59;27.42;;;11.57;;
66429;SDS011;53242;51.694;10.006;2023-06-22T05:34:21;23.35;;;11.90;;
66429;SDS011;53242;51.694;10.006;2023-06-22T05:36:44;23.13;;;11.77;;
66429;SDS011;53242;51.694;10.006;2023-06-22T05:39:12;22.90;;;11.73;;
66429;SDS011;53242;51.694;10.006;2023-06-22T05:41:35;22.70;;;12.48;;
66429;SDS011;53242;51.694;10.006;2023-06-22T05:43:58;22.95;;;11.63;;
66429;SDS011;53242;51.694;10.006;2023-06-22T05:46:20;24.33;;;12.63;;
66429;SDS011;53242;51.694;10.006;2023-06-22T05:48:43;24.50;;;12.52;;
66429;SDS011;53242;51.694;10.006;2023-06-22T05:51:06;25.70;;;13.27;;
66429;SDS011;53242;51.694;10.006;2023-06-22T05:53:28;25.35;;;12.75;;
66429;SDS011;53242;51.694;10.006;2023-06-22T05:55:51;22.58;;;11.60;;
66429;SDS011;53242;51.694;10.006;2023-06-22T05:58:13;24.35;;;13.43;;
66429;SDS011;53242;51.694;10.006;2023-06-22T06:00:36;24.63;;;13.02;;
66429;SDS011;53242;51.694;10.006;2023-06-22T06:02:59;20.10;;;11.80;;
66429;SDS011;53242;51.694;10.006;2023-06-22T06:05:25;22.15;;;11.68;;
66429;SDS011;53242;51.694;10.006;2023-06-22T06:07:47;20.95;;;11.75;;
66429;SDS011;53242;51.694;10.006;2023-06-22T06:10:12;20.70;;;10.15;;
66429;SDS011;53242;51.694;10.006;2023-06-22T06:12:35;24.02;;;10.60;;
66429;SDS011;53242;51.694;10.006;2023-06-22T06:14:57;20.33;;;10.68;;
66429;SDS011;53242;51.694;10.006;2023-06-22T06:17:20;20.08;;;11.60;;
66429;SDS011;53242;51.694;10.006;2023-06-22T06:19:42;23.63;;;12.15;;
66429;SDS011;53242;51.694;10.006;2023-06-22T06:22:05;22.00;;;12.20;;
66429;SDS011;53242;51.694;10.006;2023-06-22T06:24:27;29.15;;;14.93;;
66429;SDS011;53242;51.694;10.006;2023-06-22T06:26:49;30.05;;;15.02;;
66429;SDS011;53242;51.694;10.006;2023-06-22T06:29:12;29.10;;;15.10;;
66429;SDS011;53242;51.694;10.006;2023-06-22T06:31:34;26.98;;;14.68;;
66429;SDS011;53242;51.694;10.006;2023-06-22T06:33:57;24.77;;;13.50;;
66429;SDS011;53242;51.694;10.006;2023-06-22T06:36:19;24.25;;;13.23;;
66429;SDS011;53242;51.694;10.006;2023-06-22T06:38:42;23.02;;;12.65;;
66429;SDS011;53242;51.694;10.006;2023-06-22T06:41:04;28.13;;;13.90;;
66429;SDS011;53242;51.694;10.006;2023-06-22T06:43:26;23.48;;;12.13;;
66429;SDS011;53242;51.694;10.006;2023-06-22T06:45:49;25.75;;;13.65;;
66429;SDS011;53242;51.694;10.006;2023-06-22T06:48:11;25.85;;;13.68;;
66429;SDS011;53242;51.694;10.006;2023-06-22T06:50:34;25.50;;;13.85;;
66429;SDS011;53242;51.694;10.006;2023-06-22T06:52:56;27.83;;;13.40;;
66429;SDS011;53242;51.694;10.006;2023-06-22T06:55:21;26.02;;;13.18;;
66429;SDS011;53242;51.694;10.006;2023-06-22T06:57:46;25.15;;;13.07;;
66429;SDS011;53242;51.694;10.006;2023-06-22T07:00:11;22.90;;;13.25;;
66429;SDS011;53242;51.694;10.006;2023-06-22T07:02:35;24.55;;;13.38;;
66429;SDS011;53242;51.694;10.006;2023-06-22T07:04:58;21.15;;;11.80;;
66429;SDS011;53242;51.694;10.006;2023-06-22T07:07:20;19.55;;;11.43;;
66429;SDS011;53242;51.694;10.006;2023-06-22T07:09:43;21.13;;;11.98;;
66429;SDS011;53242;51.694;10.006;2023-06-22T07:12:05;18.60;;;11.43;;
66429;SDS011;53242;51.694;10.006;2023-06-22T07:14:28;18.25;;;10.90;;
66429;SDS011;53242;51.694;10.006;2023-06-22T07:16:50;19.65;;;11.27;;
66429;SDS011;53242;51.694;10.006;2023-06-22T07:19:13;18.85;;;11.25;;
66429;SDS011;53242;51.694;10.006;2023-06-22T07:21:35;19.10;;;11.30;;
66429;SDS011;53242;51.694;10.006;2023-06-22T07:23:58;19.42;;;10.38;;
66429;SDS011;53242;51.694;10.006;2023-06-22T07:26:20;19.50;;;11.80;;
66429;SDS011;53242;51.694;10.006;2023-06-22T07:28:42;20.88;;;11.57;;
66429;SDS011;53242;51.694;10.006;2023-06-22T07:31:05;18.63;;;11.52;;
66429;SDS011;53242;51.694;10.006;2023-06-22T07:33:27;18.25;;;10.93;;
66429;SDS011;53242;51.694;10.006;2023-06-22T07:35:50;19.15;;;11.10;;
66429;SDS011;53242;51.694;10.006;2023-06-22T07:38:14;18.10;;;10.52;;
66429;SDS011;53242;51.694;10.006;2023-06-22T07:40:37;16.60;;;10.55;;
66429;SDS011;53242;51.694;10.006;2023-06-22T07:43:00;19.45;;;11.80;;
66429;SDS011;53242;51.694;10.006;2023-06-22T07:45:22;18.90;;;10.27;;
66429;SDS011;53242;51.694;10.006;2023-06-22T07:47:45;18.05;;;10.63;;
66429;SDS011;53242;51.694;10.006;2023-06-22T07:50:07;16.20;;;10.27;;
66429;SDS011;53242;51.694;10.006;2023-06-22T07:52:30;19.55;;;11.00;;
66429;SDS011;53242;51.694;10.006;2023-06-22T07:54:53;20.00;;;11.30;;
66429;SDS011;53242;51.694;10.006;2023-06-22T07:57:15;18.50;;;11.65;;
66429;SDS011;53242;51.694;10.006;2023-06-22T07:59:37;18.73;;;11.02;;
66429;SDS011;53242;51.694;10.006;2023-06-22T08:02:00;19.30;;;10.85;;
66429;SDS011;53242;51.694;10.006;2023-06-22T08:04:25;18.88;;;11.30;;
66429;SDS011;53242;51.694;10.006;2023-06-22T08:06:49;18.38;;;11.15;;
66429;SDS011;53242;51.694;10.006;2023-06-22T08:09:11;18.65;;;10.73;;
66429;SDS011;53242;51.694;10.006;2023-06-22T08:11:34;18.48;;;9.40;;
66429;SDS011;53242;51.694;10.006;2023-06-22T08:13:56;17.92;;;10.50;;
66429;SDS011;53242;51.694;10.006;2023-06-22T08:16:20;17.20;;;9.93;;
66429;SDS011;53242;51.694;10.006;2023-06-22T08:18:43;17.75;;;9.82;;
66429;SDS011;53242;51.694;10.006;2023-06-22T08:21:05;17.52;;;9.32;;
66429;SDS011;53242;51.694;10.006;2023-06-22T08:23:27;16.05;;;9.70;;
66429;SDS011;53242;51.694;10.006;2023-06-22T08:25:50;17.65;;;9.73;;
66429;SDS011;53242;51.694;10.006;2023-06-22T08:28:13;18.88;;;9.80;;
66429;SDS011;53242;51.694;10.006;2023-06-22T08:30:35;16.13;;;10.43;;
66429;SDS011;53242;51.694;10.006;2023-06-22T08:32:57;18.60;;;9.27;;
66429;SDS011;53242;51.694;10.006;2023-06-22T08:35:21;14.77;;;8.82;;
66429;SDS011;53242;51.694;10.006;2023-06-22T08:37:44;16.45;;;9.85;;
66429;SDS011;53242;51.694;10.006;2023-06-22T08:40:12;18.42;;;10.55;;
66429;SDS011;53242;51.694;10.006;2023-06-22T08:42:35;16.63;;;9.35;;
66429;SDS011;53242;51.694;10.006;2023-06-22T08:44:58;15.80;;;10.05;;
66429;SDS011;53242;51.694;10.006;2023-06-22T08:47:20;13.23;;;8.63;;
66429;SDS011;53242;51.694;10.006;2023-06-22T08:49:43;14.45;;;9.10;;
66429;SDS011;53242;51.694;10.006;2023-06-22T08:52:06;16.80;;;9.90;;
66429;SDS011;53242;51.694;10.006;2023-06-22T08:56:56;13.25;;;8.35;;
66429;SDS011;53242;51.694;10.006;2023-06-22T08:59:18;12.38;;;7.82;;
66429;SDS011;53242;51.694;10.006;2023-06-22T09:01:41;13.90;;;8.25;;
66429;SDS011;53242;51.694;10.006;2023-06-22T09:04:07;15.60;;;9.07;;
66429;SDS011;53242;51.694;10.006;2023-06-22T09:06:31;12.82;;;8.10;;
66429;SDS011;53242;51.694;10.006;2023-06-22T09:08:54;11.65;;;6.93;;
66429;SDS011;53242;51.694;10.006;2023-06-22T09:11:16;13.52;;;7.38;;
66429;SDS011;53242;51.694;10.006;2023-06-22T09:13:39;11.68;;;7.95;;
66429;SDS011;53242;51.694;10.006;2023-06-22T09:16:01;11.70;;;7.40;;
66429;SDS011;53242;51.694;10.006;2023-06-22T09:18:23;12.45;;;7.30;;
66429;SDS011;53242;51.694;10.006;2023-06-22T09:20:46;11.82;;;7.65;;
66429;SDS011;53242;51.694;10.006;2023-06-22T09:23:08;12.40;;;6.35;;
66429;SDS011;53242;51.694;10.006;2023-06-22T09:25:30;11.13;;;7.40;;
66429;SDS011;53242;51.694;10.006;2023-06-22T09:27:53;15.10;;;7.88;;
66429;SDS011;53242;51.694;10.006;2023-06-22T09:30:15;11.18;;;7.00;;
66429;SDS011;53242;51.694;10.006;2023-06-22T09:32:38;13.85;;;8.23;;
66429;SDS011;53242;51.694;10.006;2023-06-22T09:35:05;13.55;;;7.80;;
66429;SDS011;53242;51.694;10.006;2023-06-22T09:37:28;14.07;;;7.63;;
66429;SDS011;53242;51.694;10.006;2023-06-22T09:39:51;11.95;;;7.35;;
66429;SDS011;53242;51.694;10.006;2023-06-22T09:42:13;11.93;;;7.63;;
66429;SDS011;53242;51.694;10.006;2023-06-22T09:44:35;11.43;;;7.15;;
66429;SDS011;53242;51.694;10.006;2023-06-22T09:46:58;13.93;;;7.28;;
66429;SDS011;53242;51.694;10.006;2023-06-22T09:49:20;12.35;;;6.97;;
66429;SDS011;53242;51.694;10.006;2023-06-22T09:51:43;11.70;;;7.40;;
66429;SDS011;53242;51.694;10.006;2023-06-22T09:54:05;11.15;;;6.57;;
66429;SDS011;53242;51.694;10.006;2023-06-22T09:56:27;12.27;;;7.40;;
66429;SDS011;53242;51.694;10.006;2023-06-22T09:58:51;11.48;;;6.85;;
66429;SDS011;53242;51.694;10.006;2023-06-22T10:01:14;11.50;;;7.07;;
66429;SDS011;53242;51.694;10.006;2023-06-22T10:03:37;11.60;;;7.05;;
66429;SDS011;53242;51.694;10.006;2023-06-22T10:05:59;11.05;;;7.10;;
66429;SDS011;53242;51.694;10.006;2023-06-22T10:08:22;9.05;;;5.13;;
66429;SDS011;53242;51.694;10.006;2023-06-22T10:10:44;11.85;;;6.47;;
66429;SDS011;53242;51.694;10.006;2023-06-22T10:13:07;12.85;;;6.95;;
66429;SDS011;53242;51.694;10.006;2023-06-22T10:15:33;11.68;;;7.28;;
66429;SDS011;53242;51.694;10.006;2023-06-22T10:17:56;10.77;;;7.20;;
66429;SDS011;53242;51.694;10.006;2023-06-22T10:20:18;14.45;;;6.88;;
66429;SDS011;53242;51.694;10.006;2023-06-22T10:22:41;10.50;;;6.43;;
66429;SDS011;53242;51.694;10.006;2023-06-22T10:25:04;10.77;;;6.60;;
66429;SDS011;53242;51.694;10.006;2023-06-22T10:27:27;11.07;;;6.47;;
66429;SDS011;53242;51.694;10.006;2023-06-22T10:29:49;11.48;;;6.53;;
66429;SDS011;53242;51.694;10.006;2023-06-22T10:32:12;10.88;;;5.78;;
66429;SDS011;53242;51.694;10.006;2023-06-22T10:34:34;10.10;;;6.18;;
66429;SDS011;53242;51.694;10.006;2023-06-22T10:36:56;9.85;;;5.30;;
66429;SDS011;53242;51.694;10.006;2023-06-22T10:39:19;10.18;;;5.90;;
66429;SDS011;53242;51.694;10.006;2023-06-22T10:41:41;11.07;;;6.22;;
66429;SDS011;53242;51.694;10.006;2023-06-22T10:44:04;10.02;;;5.97;;
66429;SDS011;53242;51.694;10.006;2023-06-22T10:46:26;11.40;;;6.55;;
66429;SDS011;53242;51.694;10.006;2023-06-22T10:48:49;10.90;;;6.20;;
66429;SDS011;53242;51.694;10.006;2023-06-22T10:51:12;9.85;;;6.30;;
66429;SDS011;53242;51.694;10.006;2023-06-22T10:53:34;9.82;;;5.47;;
66429;SDS011;53242;51.694;10.006;2023-06-22T10:55:56;10.45;;;6.55;;
66429;SDS011;53242;51.694;10.006;2023-06-22T10:58:19;12.48;;;6.25;;
66429;SDS011;53242;51.694;10.006;2023-06-22T11:00:41;9.93;;;6.25;;
66429;SDS011;53242;51.694;10.006;2023-06-22T11:03:04;9.98;;;6.38;;
66429;SDS011;53242;51.694;10.006;2023-06-22T11:05:26;10.52;;;6.10;;
66429;SDS011;53242;51.694;10.006;2023-06-22T11:07:49;10.38;;;6.28;;
66429;SDS011;53242;51.694;10.006;2023-06-22T11:10:12;10.60;;;6.53;;
66429;SDS011;53242;51.694;10.006;2023-06-22T11:12:35;10.20;;;6.70;;
66429;SDS011;53242;51.694;10.006;2023-06-22T11:14:57;10.15;;;6.18;;
66429;SDS011;53242;51.694;10.006;2023-06-22T11:17:20;9.63;;;5.75;;
66429;SDS011;53242;51.694;10.006;2023-06-22T11:19:43;11.32;;;6.00;;
66429;SDS011;53242;51.694;10.006;2023-06-22T11:22:06;10.32;;;5.75;;
66429;SDS011;53242;51.694;10.006;2023-06-22T11:24:29;9.40;;;6.22;;
66429;SDS011;53242;51.694;10.006;2023-06-22T11:26:51;9.32;;;5.20;;
66429;SDS011;53242;51.694;10.006;2023-06-22T11:29:13;9.35;;;5.40;;
66429;SDS011;53242;51.694;10.006;2023-06-22T11:31:36;10.07;;;5.88;;
66429;SDS011;53242;51.694;10.006;2023-06-22T11:33:58;9.40;;;5.47;;
66429;SDS011;53242;51.694;10.006;2023-06-22T11:36:21;12.10;;;6.35;;
66429;SDS011;53242;51.694;10.006;2023-06-22T11:38:43;11.23;;;6.25;;
66429;SDS011;53242;51.694;10.006;2023-06-22T11:41:06;9.65;;;5.60;;
66429;SDS011;53242;51.694;10.006;2023-06-22T11:43:29;9.13;;;5.80;;
66429;SDS011;53242;51.694;10.006;2023-06-22T11:45:52;9.68;;;6.03;;
66429;SDS011;53242;51.694;10.006;2023-06-22T11:48:14;10.77;;;5.82;;
66429;SDS011;53242;51.694;10.006;2023-06-22T11:50:36;8.27;;;5.45;;
66429;SDS011;53242;51.694;10.006;2023-06-22T11:52:59;10.40;;;5.40;;
66429;SDS011;53242;51.694;10.006;2023-06-22T11:55:21;10.18;;;6.10;;
66429;SDS011;53242;51.694;10.006;2023-06-22T11:58:02;9.80;;;6.43;;
66429;SDS011;53242;51.694;10.006;2023-06-22T12:00:25;10.88;;;5.93;;
66429;SDS011;53242;51.694;10.006;2023-06-22T12:02:48;12.27;;;6.07;;
66429;SDS011;53242;51.694;10.006;2023-06-22T12:05:10;9.40;;;5.38;;
66429;SDS011;53242;51.694;10.006;2023-06-22T12:07:33;9.50;;;5.78;;
66429;SDS011;53242;51.694;10.006;2023-06-22T12:09:55;11.57;;;6.07;;
66429;SDS011;53242;51.694;10.006;2023-06-22T12:12:18;10.32;;;5.93;;
66429;SDS011;53242;51.694;10.006;2023-06-22T12:14:40;10.10;;;6.07;;
66429;SDS011;53242;51.694;10.006;2023-06-22T12:17:03;10.48;;;6.18;;
66429;SDS011;53242;51.694;10.006;2023-06-22T12:19:25;9.23;;;5.28;;
66429;SDS011;53242;51.694;10.006;2023-06-22T12:21:48;10.55;;;5.80;;
66429;SDS011;53242;51.694;10.006;2023-06-22T12:24:10;15.45;;;6.78;;
66429;SDS011;53242;51.694;10.006;2023-06-22T12:26:32;9.80;;;5.50;;
66429;SDS011;53242;51.694;10.006;2023-06-22T12:28:55;8.57;;;4.93;;
66429;SDS011;53242;51.694;10.006;2023-06-22T12:31:17;9.30;;;5.75;;
66429;SDS011;53242;51.694;10.006;2023-06-22T12:33:40;9.27;;;5.30;;
66429;SDS011;53242;51.694;10.006;2023-06-22T12:36:02;10.23;;;5.60;;
66429;SDS011;53242;51.694;10.006;2023-06-22T12:38:26;9.18;;;5.85;;
66429;SDS011;53242;51.694;10.006;2023-06-22T12:40:49;10.20;;;5.63;;
66429;SDS011;53242;51.694;10.006;2023-06-22T12:43:11;9.82;;;6.03;;
66429;SDS011;53242;51.694;10.006;2023-06-22T12:45:34;9.75;;;5.75;;
66429;SDS011;53242;51.694;10.006;2023-06-22T12:47:56;12.90;;;6.13;;
66429;SDS011;53242;51.694;10.006;2023-06-22T12:50:19;11.32;;;6.35;;
66429;SDS011;53242;51.694;10.006;2023-06-22T12:52:41;9.25;;;5.50;;
66429;SDS011;53242;51.694;10.006;2023-06-22T12:55:04;9.98;;;5.82;;
66429;SDS011;53242;51.694;10.006;2023-06-22T12:57:27;10.05;;;6.25;;
66429;SDS011;53242;51.694;10.006;2023-06-22T12:59:49;9.45;;;5.90;;
66429;SDS011;53242;51.694;10.006;2023-06-22T13:02:11;10.25;;;6.43;;
66429;SDS011;53242;51.694;10.006;2023-06-22T13:04:34;9.43;;;5.45;;
66429;SDS011;53242;51.694;10.006;2023-06-22T13:06:56;11.38;;;5.97;;
66429;SDS011;53242;51.694;10.006;2023-06-22T13:09:19;10.20;;;6.13;;
66429;SDS011;53242;51.694;10.006;2023-06-22T13:11:42;11.48;;;6.68;;
66429;SDS011;53242;51.694;10.006;2023-06-22T13:14:05;11.20;;;6.30;;
66429;SDS011;53242;51.694;10.006;2023-06-22T13:16:27;9.52;;;6.47;;
66429;SDS011;53242;51.694;10.006;2023-06-22T13:18:49;10.23;;;6.22;;
66429;SDS011;53242;51.694;10.006;2023-06-22T13:21:12;10.05;;;6.35;;
66429;SDS011;53242;51.694;10.006;2023-06-22T13:23:35;11.52;;;6.53;;
66429;SDS011;53242;51.694;10.006;2023-06-22T13:25:58;11.38;;;6.20;;
66429;SDS011;53242;51.694;10.006;2023-06-22T13:28:20;10.48;;;6.30;;
66429;SDS011;53242;51.694;10.006;2023-06-22T13:30:43;10.60;;;6.47;;
66429;SDS011;53242;51.694;10.006;2023-06-22T13:33:08;13.38;;;7.10;;
66429;SDS011;53242;51.694;10.006;2023-06-22T13:35:31;11.18;;;6.90;;
66429;SDS011;53242;51.694;10.006;2023-06-22T13:37:53;14.00;;;6.45;;
66429;SDS011;53242;51.694;10.006;2023-06-22T13:40:15;11.75;;;6.35;;
66429;SDS011;53242;51.694;10.006;2023-06-22T13:42:38;12.35;;;6.40;;
66429;SDS011;53242;51.694;10.006;2023-06-22T13:45:00;10.25;;;5.93;;
66429;SDS011;53242;51.694;10.006;2023-06-22T13:47:23;10.10;;;6.28;;
66429;SDS011;53242;51.694;10.006;2023-06-22T13:49:45;11.35;;;6.90;;
66429;SDS011;53242;51.694;10.006;2023-06-22T13:52:08;10.10;;;5.95;;
66429;SDS011;53242;51.694;10.006;2023-06-22T13:54:32;11.15;;;6.50;;
66429;SDS011;53242;51.694;10.006;2023-06-22T13:56:54;12.13;;;6.88;;
66429;SDS011;53242;51.694;10.006;2023-06-22T13:59:17;11.50;;;6.60;;
66429;SDS011;53242;51.694;10.006;2023-06-22T14:01:39;13.75;;;7.32;;
66429;SDS011;53242;51.694;10.006;2023-06-22T14:06:25;10.23;;;6.77;;
66429;SDS011;53242;51.694;10.006;2023-06-22T14:08:47;12.95;;;7.47;;